Time;durP1;ratioP1;P1;durP2;ratioP2;P2;SDS_P1;SDS_P2;PMS_P1;PMS_P2;Temp;Humidity;BMP_temperature;BMP_pressure;BME280_temperature;BME280_humidity;BME280_pressure;Samples;Min_cycle;Max_cycle;Signal;HPM_P1;HPM_P2
2022/03/06 04:00:14;;;;;;;2.05;1.30;;;15.00;47.50;;;;;;6076298;22;46381;-66
2022/03/06 04:02:39;;;;;;;1.80;1.23;;;15.00;47.50;;;;;;4959274;28;45309;-64
2022/03/06 04:05:05;;;;;;;2.05;1.30;;;15.10;47.50;;;;;;4938410;28;45704;-64
2022/03/06 04:07:31;;;;;;;1.45;1.20;;;15.00;47.50;;;;;;4976307;28;45357;-64
2022/03/06 04:09:57;;;;;;;1.92;1.42;;;15.00;48.10;;;;;;4973776;28;45496;-65
2022/03/06 04:12:22;;;;;;;2.00;1.33;;;15.00;47.50;;;;;;4989231;28;45410;-63
2022/03/06 04:14:48;;;;;;;2.15;1.33;;;15.00;47.40;;;;;;4993264;28;45224;-65
2022/03/06 04:17:13;;;;;;;1.88;1.40;;;15.00;47.40;;;;;;4992653;28;45378;-65
2022/03/06 04:19:39;;;;;;;2.00;1.58;;;15.00;47.50;;;;;;4994245;28;45449;-64
2022/03/06 04:22:04;;;;;;;1.30;1.20;;;15.00;47.50;;;;;;4994888;28;45435;-63
2022/03/06 04:24:30;;;;;;;1.60;1.20;;;15.00;47.50;;;;;;4993495;28;45332;-65
2022/03/06 04:26:56;;;;;;;1.95;1.50;;;15.00;47.60;;;;;;4979407;28;45487;-64
2022/03/06 04:29:21;;;;;;;1.50;1.30;;;15.00;47.50;;;;;;4992496;28;46188;-64
2022/03/06 04:31:47;;;;;;;1.63;1.20;;;15.00;47.50;;;;;;4987510;28;45309;-64
2022/03/06 04:34:12;;;;;;;3.38;1.40;;;14.90;47.50;;;;;;4978116;28;45270;-64
2022/03/06 04:36:38;;;;;;;2.08;1.48;;;14.90;47.50;;;;;;4993279;28;45204;-65
2022/03/06 04:39:04;;;;;;;1.45;1.35;;;14.90;47.60;;;;;;4994427;28;46272;-64
2022/03/06 04:41:29;;;;;;;1.70;1.58;;;14.90;47.60;;;;;;4983151;28;45513;-64
2022/03/06 04:43:55;;;;;;;1.52;1.40;;;14.90;47.50;;;;;;4994181;28;45304;-64
2022/03/06 04:46:20;;;;;;;1.58;1.23;;;14.90;47.50;;;;;;4993388;28;44900;-65
2022/03/06 04:48:46;;;;;;;1.30;1.20;;;14.90;47.50;;;;;;4992885;28;45719;-64
2022/03/06 04:51:12;;;;;;;1.48;1.38;;;14.90;47.50;;;;;;4986535;28;45228;-64
2022/03/06 04:53:37;;;;;;;1.95;1.50;;;14.90;47.60;;;;;;4995338;28;45149;-64
2022/03/06 04:56:04;;;;;;;1.98;1.50;;;14.90;47.50;;;;;;4982307;28;44882;-64
2022/03/06 04:58:30;;;;;;;1.52;1.20;;;14.90;47.50;;;;;;4987918;28;47406;-65
2022/03/06 05:00:55;;;;;;;1.60;1.30;;;14.80;47.50;;;;;;4987464;28;45273;-64
2022/03/06 05:03:21;;;;;;;1.92;1.40;;;14.90;47.60;;;;;;4988018;28;44740;-64
2022/03/06 05:05:48;;;;;;;1.52;1.30;;;14.80;47.50;;;;;;4977514;28;45391;-64
2022/03/06 05:08:13;;;;;;;1.40;1.20;;;14.80;47.50;;;;;;4980209;28;44945;-64
2022/03/06 05:10:39;;;;;;;1.92;1.60;;;14.80;47.50;;;;;;4998964;28;45240;-64
2022/03/06 05:13:04;;;;;;;1.20;1.10;;;14.80;47.50;;;;;;4993413;28;45159;-64
2022/03/06 05:15:30;;;;;;;1.75;1.30;;;14.80;47.50;;;;;;4988958;28;45230;-64
2022/03/06 05:17:55;;;;;;;2.15;1.60;;;14.80;47.60;;;;;;4993540;28;47080;-65
2022/03/06 05:20:21;;;;;;;1.63;1.20;;;14.80;47.60;;;;;;4991132;28;45363;-64
2022/03/06 05:22:47;;;;;;;1.95;1.40;;;14.70;47.60;;;;;;4992043;28;45525;-65
2022/03/06 05:25:12;;;;;;;1.58;1.38;;;14.80;47.70;;;;;;4996479;28;46063;-64
2022/03/06 05:27:38;;;;;;;1.58;1.23;;;14.70;47.70;;;;;;4995954;28;45228;-64
2022/03/06 05:30:05;;;;;;;2.10;1.50;;;14.70;47.60;;;;;;4980655;28;45447;-64
2022/03/06 05:32:31;;;;;;;2.10;1.35;;;14.70;47.60;;;;;;4987888;28;45206;-65
2022/03/06 05:34:56;;;;;;;1.83;1.40;;;14.70;47.50;;;;;;4995446;28;45523;-64
2022/03/06 05:37:22;;;;;;;1.83;1.30;;;14.70;47.60;;;;;;4988878;28;45978;-64
2022/03/06 05:39:47;;;;;;;1.67;1.25;;;14.70;47.70;;;;;;4993893;28;45479;-64
2022/03/06 05:42:14;;;;;;;2.33;1.60;;;14.70;47.70;;;;;;4992251;28;45014;-63
2022/03/06 05:44:41;;;;;;;1.92;1.42;;;14.70;47.70;;;;;;4953824;28;44882;-65
2022/03/06 05:47:06;;;;;;;1.50;1.40;;;14.70;47.60;;;;;;4992367;28;46006;-65
2022/03/06 05:49:32;;;;;;;1.88;1.40;;;14.60;47.60;;;;;;4990024;28;45228;-65
2022/03/06 05:51:58;;;;;;;2.30;1.90;;;14.60;47.60;;;;;;4991673;28;45571;-64
2022/03/06 05:54:23;;;;;;;1.55;1.40;;;14.60;47.70;;;;;;4991974;28;45753;-64
2022/03/06 05:56:49;;;;;;;1.25;1.10;;;14.70;48.20;;;;;;4992509;28;45955;-64
2022/03/06 05:59:15;;;;;;;2.10;1.50;;;14.70;47.50;;;;;;4990331;28;45399;-64
2022/03/06 06:01:40;;;;;;;1.70;1.60;;;14.70;47.50;;;;;;4989502;28;45450;-64
2022/03/06 06:04:06;;;;;;;1.30;1.20;;;14.60;47.50;;;;;;4989566;28;45297;-67
2022/03/06 06:06:32;;;;;;;1.98;1.50;;;14.60;47.50;;;;;;4987957;28;45336;-64
2022/03/06 06:08:57;;;;;;;2.08;1.40;;;14.60;47.60;;;;;;4973659;28;45560;-64
2022/03/06 06:11:23;;;;;;;1.77;1.38;;;14.60;47.60;;;;;;4990690;28;45086;-64
2022/03/06 06:13:48;;;;;;;1.40;1.30;;;14.60;47.70;;;;;;4991072;28;45332;-65
2022/03/06 06:16:14;;;;;;;1.45;1.35;;;14.60;47.70;;;;;;4957232;28;46958;-65
2022/03/06 06:18:40;;;;;;;2.28;1.55;;;14.60;47.60;;;;;;4974797;28;44937;-64
2022/03/06 06:21:06;;;;;;;1.58;1.40;;;14.60;47.60;;;;;;4992329;28;45617;-63
2022/03/06 06:23:32;;;;;;;1.48;1.25;;;14.60;47.60;;;;;;4972262;28;45462;-62
2022/03/06 06:25:57;;;;;;;1.77;1.40;;;14.50;47.60;;;;;;4990685;28;46243;-64
2022/03/06 06:28:23;;;;;;;3.22;1.70;;;14.60;47.70;;;;;;4990264;28;45027;-63
2022/03/06 06:30:49;;;;;;;1.67;1.58;;;14.60;47.70;;;;;;4988414;28;45940;-64
2022/03/06 06:33:14;;;;;;;1.80;1.45;;;14.50;47.60;;;;;;4989207;28;45360;-65
2022/03/06 06:35:40;;;;;;;2.20;1.67;;;14.50;47.70;;;;;;4990014;28;46110;-65
2022/03/06 06:38:05;;;;;;;1.88;1.60;;;14.50;47.80;;;;;;4992214;28;44989;-64
2022/03/06 06:40:31;;;;;;;2.30;1.50;;;14.50;47.80;;;;;;4988750;28;45334;-65
2022/03/06 06:42:57;;;;;;;1.60;1.48;;;14.50;47.80;;;;;;4988296;28;45482;-64
2022/03/06 06:45:23;;;;;;;1.30;1.20;;;14.50;47.80;;;;;;4973376;28;45085;-64
2022/03/06 06:47:48;;;;;;;1.88;1.65;;;14.50;47.80;;;;;;4992163;28;45599;-64
2022/03/06 06:50:14;;;;;;;1.65;1.30;;;14.50;47.80;;;;;;4957424;28;44769;-65
2022/03/06 06:52:40;;;;;;;2.20;1.63;;;14.50;47.80;;;;;;4988167;28;45179;-65
2022/03/06 06:55:06;;;;;;;2.00;1.80;;;14.50;47.70;;;;;;4989884;28;44900;-65
2022/03/06 06:57:32;;;;;;;1.73;1.50;;;14.50;47.60;;;;;;4988759;28;45210;-65
2022/03/06 06:59:58;;;;;;;1.63;1.48;;;14.50;47.60;;;;;;4971809;28;45318;-64
2022/03/06 07:02:24;;;;;;;1.67;1.40;;;14.50;47.50;;;;;;4973967;28;45527;-64
2022/03/06 07:04:50;;;;;;;1.77;1.40;;;14.50;48.10;;;;;;4973423;28;46411;-64
2022/03/06 07:07:15;;;;;;;1.92;1.52;;;14.60;47.50;;;;;;4989785;28;46047;-63
2022/03/06 07:09:41;;;;;;;1.70;1.60;;;14.50;47.40;;;;;;4992307;28;45442;-64
2022/03/06 07:12:07;;;;;;;1.52;1.42;;;14.50;47.30;;;;;;4988638;28;45688;-63
2022/03/06 07:14:33;;;;;;;1.80;1.63;;;14.60;47.40;;;;;;4992067;28;45381;-64
2022/03/06 07:16:58;;;;;;;1.65;1.48;;;14.60;47.30;;;;;;4974648;28;45648;-64
2022/03/06 07:19:24;;;;;;;1.63;1.52;;;14.50;47.30;;;;;;4988444;28;45647;-64
2022/03/06 07:21:50;;;;;;;1.50;1.38;;;14.50;47.30;;;;;;4989404;28;45281;-65
2022/03/06 07:24:15;;;;;;;1.60;1.35;;;14.60;47.40;;;;;;4989384;28;46039;-63
2022/03/06 07:26:41;;;;;;;1.58;1.23;;;14.50;47.30;;;;;;4987469;28;45302;-64
2022/03/06 07:29:07;;;;;;;1.80;1.50;;;14.50;47.20;;;;;;4978868;28;45286;-64
2022/03/06 07:31:32;;;;;;;2.53;1.60;;;14.60;47.30;;;;;;4982871;28;45599;-64
2022/03/06 07:33:58;;;;;;;1.67;1.30;;;14.60;47.30;;;;;;4984199;28;46041;-64
2022/03/06 07:36:24;;;;;;;1.58;1.42;;;14.60;47.30;;;;;;4986265;28;44772;-64
2022/03/06 07:38:49;;;;;;;2.30;1.50;;;14.60;47.20;;;;;;4957017;28;45329;-64
2022/03/06 07:41:17;;;;;;;1.33;1.23;;;14.60;47.20;;;;;;4981502;28;45552;-65
2022/03/06 07:43:43;;;;;;;1.95;1.60;;;14.60;47.20;;;;;;4980864;28;46097;-67
2022/03/06 07:46:08;;;;;;;1.80;1.60;;;14.60;47.20;;;;;;4985542;28;45596;-64
2022/03/06 07:48:34;;;;;;;1.27;1.17;;;14.60;47.20;;;;;;4984610;28;45258;-64
2022/03/06 07:50:59;;;;;;;1.70;1.40;;;14.60;47.30;;;;;;4985755;28;45913;-64
2022/03/06 07:53:25;;;;;;;1.20;1.10;;;14.60;47.20;;;;;;4987770;28;45477;-64
2022/03/06 07:55:51;;;;;;;1.98;1.50;;;14.60;47.10;;;;;;4986380;28;45246;-64
2022/03/06 07:58:16;;;;;;;1.70;1.40;;;14.60;47.10;;;;;;4954079;28;45346;-64
2022/03/06 08:00:42;;;;;;;2.17;1.40;;;14.60;47.10;;;;;;4985121;28;45191;-64
2022/03/06 08:03:08;;;;;;;1.88;1.70;;;14.60;47.10;;;;;;4969515;28;46492;-64
2022/03/06 08:05:33;;;;;;;1.80;1.58;;;14.70;47.00;;;;;;4987657;28;44765;-65
2022/03/06 08:07:59;;;;;;;1.90;1.55;;;14.60;47.00;;;;;;4985707;28;45364;-64
2022/03/06 08:10:24;;;;;;;1.52;1.42;;;14.60;47.00;;;;;;4970344;28;45886;-64
2022/03/06 08:12:50;;;;;;;2.03;1.33;;;14.70;47.00;;;;;;4986395;28;45537;-64
2022/03/06 08:15:15;;;;;;;1.92;1.40;;;14.70;47.00;;;;;;4982953;28;45656;-65
2022/03/06 08:17:41;;;;;;;2.13;1.45;;;14.70;47.00;;;;;;4954127;28;45597;-64
2022/03/06 08:20:07;;;;;;;2.95;1.67;;;14.70;47.00;;;;;;4981988;28;46612;-64
2022/03/06 08:22:33;;;;;;;2.28;1.55;;;14.60;47.00;;;;;;4984633;28;45616;-65
2022/03/06 08:24:59;;;;;;;3.03;1.52;;;14.60;47.10;;;;;;4985369;28;44780;-65
2022/03/06 08:27:24;;;;;;;2.20;1.52;;;14.60;47.10;;;;;;4967912;28;45417;-64
2022/03/06 08:29:50;;;;;;;1.50;1.35;;;14.60;47.10;;;;;;4984865;28;45138;-64
2022/03/06 08:32:16;;;;;;;2.03;1.55;;;14.60;47.10;;;;;;4982914;28;46391;-64
2022/03/06 08:34:41;;;;;;;1.75;1.42;;;14.60;47.10;;;;;;4967164;28;45442;-64
2022/03/06 08:37:07;;;;;;;1.88;1.55;;;14.60;47.10;;;;;;4954193;28;45655;-64
2022/03/06 08:39:33;;;;;;;1.85;1.25;;;14.60;47.10;;;;;;4987517;28;45711;-64
2022/03/06 08:41:59;;;;;;;1.35;1.25;;;14.60;47.10;;;;;;4980735;28;45246;-65
2022/03/06 08:44:25;;;;;;;1.88;1.52;;;14.60;47.20;;;;;;4987094;28;45298;-64
2022/03/06 08:46:50;;;;;;;1.80;1.60;;;14.60;47.20;;;;;;4986764;28;45233;-65
2022/03/06 08:49:16;;;;;;;2.08;1.50;;;14.60;47.10;;;;;;4988524;28;45527;-64
2022/03/06 08:51:41;;;;;;;1.60;1.50;;;14.60;47.20;;;;;;4989237;28;45303;-64
2022/03/06 08:54:07;;;;;;;1.67;1.50;;;14.60;47.20;;;;;;4974604;28;45557;-65
2022/03/06 08:56:33;;;;;;;2.78;1.65;;;14.60;47.20;;;;;;4971568;28;45689;-65
2022/03/06 08:58:58;;;;;;;1.95;1.50;;;14.60;47.20;;;;;;4991190;28;45313;-65
2022/03/06 09:01:24;;;;;;;1.50;1.25;;;14.60;47.20;;;;;;4987869;28;45443;-65
2022/03/06 09:03:49;;;;;;;2.10;1.48;;;14.60;47.20;;;;;;4988579;28;45400;-65
2022/03/06 09:06:15;;;;;;;2.05;1.58;;;14.60;47.20;;;;;;4972383;28;45395;-64
2022/03/06 09:08:41;;;;;;;2.00;1.77;;;14.60;47.20;;;;;;4990244;28;45448;-64
2022/03/06 09:11:06;;;;;;;2.08;1.50;;;14.60;47.30;;;;;;4980906;28;45905;-64
2022/03/06 09:13:35;;;;;;;2.10;1.45;;;14.60;47.30;;;;;;4988818;28;45217;-64
2022/03/06 09:16:02;;;;;;;1.83;1.52;;;14.60;47.20;;;;;;4955449;28;45277;-64
2022/03/06 09:18:28;;;;;;;1.90;1.40;;;14.50;47.20;;;;;;4971829;28;45314;-65
2022/03/06 09:20:53;;;;;;;2.15;1.58;;;14.50;47.30;;;;;;4989005;28;45263;-64
2022/03/06 09:23:19;;;;;;;1.95;1.65;;;14.60;47.30;;;;;;4990102;28;45304;-65
2022/03/06 09:25:44;;;;;;;1.83;1.33;;;14.50;47.20;;;;;;4987196;28;45466;-65
2022/03/06 09:28:10;;;;;;;1.98;1.50;;;14.50;47.20;;;;;;4987718;28;45265;-65
2022/03/06 09:30:35;;;;;;;1.52;1.42;;;14.60;47.20;;;;;;4982008;28;47076;-65
2022/03/06 09:33:01;;;;;;;1.80;1.50;;;14.60;47.30;;;;;;4988927;28;45000;-65
2022/03/06 09:35:27;;;;;;;2.10;1.27;;;14.60;47.20;;;;;;4968533;28;45426;-65
2022/03/06 09:37:54;;;;;;;1.55;1.45;;;14.50;47.20;;;;;;4971242;28;45790;-65
2022/03/06 09:40:19;;;;;;;2.08;1.65;;;14.60;47.20;;;;;;4987908;28;47274;-65
2022/03/06 09:42:45;;;;;;;1.88;1.65;;;14.50;47.20;;;;;;4982651;28;45320;-65
2022/03/06 09:45:12;;;;;;;1.95;1.40;;;14.50;47.20;;;;;;4972041;28;46489;-66
2022/03/06 09:47:38;;;;;;;2.55;1.77;;;14.60;47.20;;;;;;4987016;28;45217;-65
2022/03/06 09:50:04;;;;;;;2.13;1.58;;;14.60;47.20;;;;;;4988141;28;46009;-65
2022/03/06 09:52:30;;;;;;;1.20;1.10;;;14.60;47.20;;;;;;4984006;28;45365;-65
2022/03/06 09:54:55;;;;;;;2.40;1.58;;;14.60;47.10;;;;;;4990088;28;45220;-64
2022/03/06 09:57:21;;;;;;;2.05;1.55;;;14.60;47.10;;;;;;4958506;28;45509;-65
2022/03/06 09:59:47;;;;;;;1.50;1.30;;;14.60;47.10;;;;;;4970498;28;46533;-66
2022/03/06 10:02:12;;;;;;;1.98;1.77;;;14.60;47.10;;;;;;4984436;28;45422;-66
2022/03/06 10:04:38;;;;;;;2.22;1.75;;;14.60;47.10;;;;;;4988559;28;45287;-66
2022/03/06 10:07:05;;;;;;;1.52;1.30;;;14.60;47.10;;;;;;4987708;28;45447;-65
2022/03/06 10:09:32;;;;;;;2.00;1.40;;;14.60;47.10;;;;;;4986365;28;45319;-65
2022/03/06 10:11:57;;;;;;;1.85;1.40;;;14.60;47.00;;;;;;4989922;28;44704;-65
2022/03/06 10:14:40;;;;;;;2.17;1.60;;;14.60;47.00;;;;;;4990777;28;45233;-65
2022/03/06 10:17:09;;;;;;;1.83;1.50;;;14.60;47.00;;;;;;4985970;28;45228;-65
2022/03/06 10:19:48;;;;;;;1.63;1.45;;;14.60;46.90;;;;;;4987914;28;45162;-65
2022/03/06 10:22:14;;;;;;;2.83;1.40;;;14.60;46.90;;;;;;4988792;28;45621;-65
2022/03/06 10:24:49;;;;;;;2.25;1.63;;;14.60;47.00;;;;;;4987833;28;45694;-65
2022/03/06 10:27:15;;;;;;;2.75;1.77;;;14.60;46.90;;;;;;4951673;28;45404;-65
2022/03/06 10:29:41;;;;;;;1.65;1.55;;;14.60;47.00;;;;;;4989939;28;46989;-64
2022/03/06 10:32:07;;;;;;;2.15;1.70;;;14.60;47.00;;;;;;4988217;28;45086;-64
2022/03/06 10:34:40;;;;;;;2.20;1.63;;;14.60;47.00;;;;;;4989591;28;45064;-65
2022/03/06 10:37:06;;;;;;;1.80;1.45;;;14.60;47.00;;;;;;4987698;28;45431;-65
2022/03/06 10:39:42;;;;;;;1.92;1.67;;;14.60;47.00;;;;;;4971124;28;45249;-64
2022/03/06 10:42:08;;;;;;;1.83;1.50;;;14.60;47.00;;;;;;4981988;28;45203;-64
2022/03/06 10:44:47;;;;;;;1.73;1.50;;;14.60;47.00;;;;;;4991590;28;44751;-65
2022/03/06 10:47:12;;;;;;;2.50;1.60;;;14.60;47.00;;;;;;4974093;28;45644;-65
2022/03/06 10:49:38;;;;;;;2.08;1.75;;;14.60;47.00;;;;;;4987549;28;45170;-65
2022/03/06 10:52:15;;;;;;;2.15;1.80;;;14.60;47.00;;;;;;4975987;28;45265;-64
2022/03/06 10:54:51;;;;;;;1.73;1.63;;;14.60;47.00;;;;;;4988714;28;45231;-64
2022/03/06 10:57:16;;;;;;;1.70;1.42;;;14.60;47.00;;;;;;4974766;28;45358;-65
2022/03/06 10:59:42;;;;;;;1.88;1.58;;;14.60;47.00;;;;;;4970627;28;45874;-65
2022/03/06 11:02:09;;;;;;;1.85;1.58;;;14.60;47.00;;;;;;4981829;28;45464;-65
2022/03/06 11:04:34;;;;;;;2.17;1.80;;;14.60;47.00;;;;;;4959831;28;45265;-64
2022/03/06 11:07:00;;;;;;;2.63;1.85;;;14.50;47.00;;;;;;4987424;28;45265;-64
2022/03/06 11:09:25;;;;;;;1.88;1.45;;;14.60;47.00;;;;;;4990137;28;46147;-65
2022/03/06 11:11:51;;;;;;;2.45;1.85;;;14.60;47.00;;;;;;4989986;28;45352;-64
2022/03/06 11:14:17;;;;;;;1.90;1.45;;;14.60;47.00;;;;;;4987630;28;45573;-65
2022/03/06 11:16:42;;;;;;;2.40;1.58;;;14.50;47.00;;;;;;4988007;28;45159;-64
2022/03/06 11:19:09;;;;;;;1.50;1.40;;;14.50;47.00;;;;;;4990096;28;45382;-64
2022/03/06 11:21:35;;;;;;;2.80;1.80;;;14.50;47.00;;;;;;4974536;28;45326;-64
2022/03/06 11:24:06;;;;;;;1.50;1.40;;;14.60;47.10;;;;;;4975474;28;45165;-65
2022/03/06 11:27:03;;;;;;;1.90;1.50;;;14.50;47.10;;;;;;4968973;28;45525;-65
2022/03/06 11:29:55;;;;;;;1.60;1.40;;;14.50;47.00;;;;;;4965707;28;47218;-65
2022/03/06 11:32:25;;;;;;;1.40;1.30;;;14.50;47.00;;;;;;4984821;28;45492;-65
2022/03/06 11:34:52;;;;;;;2.55;1.48;;;14.50;47.00;;;;;;4982347;28;45342;-64
2022/03/06 11:37:18;;;;;;;2.15;1.67;;;14.50;46.90;;;;;;4989914;28;44820;-65
2022/03/06 11:39:45;;;;;;;2.58;1.83;;;14.50;46.90;;;;;;4986060;28;45351;-65
2022/03/06 11:42:10;;;;;;;2.10;1.35;;;14.60;46.90;;;;;;4972927;28;45294;-65
2022/03/06 11:44:37;;;;;;;1.50;1.38;;;14.50;46.80;;;;;;4955840;28;45434;-65
2022/03/06 11:47:13;;;;;;;2.33;1.80;;;14.60;46.90;;;;;;4990309;28;45505;-64
2022/03/06 11:49:39;;;;;;;1.83;1.27;;;14.50;46.90;;;;;;4972095;28;46214;-64
2022/03/06 11:52:28;;;;;;;1.70;1.42;;;14.50;46.90;;;;;;4985870;28;45293;-64
2022/03/06 11:54:53;;;;;;;1.63;1.45;;;14.50;46.90;;;;;;4991089;28;44882;-64
2022/03/06 11:57:39;;;;;;;2.20;1.60;;;14.50;46.90;;;;;;4983017;28;45547;-65
2022/03/06 12:00:17;;;;;;;2.42;1.95;;;14.50;46.90;;;;;;4978182;28;45655;-64
2022/03/06 12:02:54;;;;;;;2.03;1.77;;;14.60;46.90;;;;;;4983507;28;45293;-64
2022/03/06 12:05:20;;;;;;;2.40;1.77;;;14.60;46.80;;;;;;4987298;28;45205;-64
2022/03/06 12:07:46;;;;;;;2.65;1.60;;;14.50;46.80;;;;;;4983134;28;45183;-65
2022/03/06 12:10:12;;;;;;;2.53;1.73;;;14.50;46.80;;;;;;4987970;28;46377;-65
2022/03/06 12:12:38;;;;;;;2.65;2.10;;;14.50;46.90;;;;;;4970902;28;45497;-64
2022/03/06 12:15:16;;;;;;;2.20;1.50;;;14.50;46.80;;;;;;4970644;28;46170;-64
2022/03/06 12:17:42;;;;;;;1.80;1.40;;;14.50;46.80;;;;;;4989760;28;45309;-64
2022/03/06 12:20:08;;;;;;;1.63;1.40;;;14.50;46.80;;;;;;4982484;28;45523;-65
2022/03/06 12:22:36;;;;;;;2.33;1.60;;;14.50;46.90;;;;;;4984270;28;45154;-64
2022/03/06 12:25:10;;;;;;;1.40;1.30;;;14.50;46.90;;;;;;4970301;28;45182;-65
2022/03/06 12:27:43;;;;;;;1.75;1.58;;;14.50;46.80;;;;;;4985283;28;45190;-65
2022/03/06 12:30:12;;;;;;;3.28;1.88;;;14.50;46.80;;;;;;4986647;28;46367;-65
2022/03/06 12:32:40;;;;;;;1.50;1.40;;;14.50;46.80;;;;;;4974308;28;45592;-64
2022/03/06 12:35:12;;;;;;;1.70;1.60;;;14.50;46.80;;;;;;4982911;28;45527;-64
2022/03/06 12:37:39;;;;;;;1.40;1.15;;;14.50;46.70;;;;;;4990305;28;45645;-65
2022/03/06 12:40:06;;;;;;;1.98;1.50;;;14.50;46.80;;;;;;4985869;28;45426;-65
2022/03/06 12:42:33;;;;;;;1.95;1.60;;;14.50;46.80;;;;;;4990983;28;45242;-64
2022/03/06 12:45:01;;;;;;;2.15;1.60;;;14.50;46.80;;;;;;4967804;28;45338;-65
2022/03/06 12:47:26;;;;;;;2.80;1.73;;;14.50;46.80;;;;;;4986489;28;45628;-66
2022/03/06 12:49:53;;;;;;;2.15;1.20;;;14.50;46.80;;;;;;4968119;28;45411;-65
2022/03/06 12:52:23;;;;;;;2.42;1.80;;;14.50;46.80;;;;;;4964983;28;45583;-66
2022/03/06 12:54:49;;;;;;;2.17;1.33;;;14.50;46.80;;;;;;4986086;28;45745;-66
2022/03/06 12:57:15;;;;;;;2.03;1.55;;;14.50;46.90;;;;;;4955057;28;45697;-66
2022/03/06 12:59:46;;;;;;;1.98;1.60;;;14.50;47.50;;;;;;4968874;28;45961;-66
2022/03/06 13:02:12;;;;;;;1.70;1.60;;;14.50;46.90;;;;;;4974117;28;44759;-66
2022/03/06 13:04:37;;;;;;;1.65;1.52;;;14.50;46.90;;;;;;4971563;28;45390;-66
2022/03/06 13:07:05;;;;;;;1.40;1.30;;;14.50;46.80;;;;;;4984676;28;45245;-66
2022/03/06 13:09:34;;;;;;;1.60;1.40;;;14.50;46.80;;;;;;4967594;28;46920;-65
2022/03/06 13:12:00;;;;;;;1.85;1.23;;;14.50;46.80;;;;;;4973923;28;45164;-65
2022/03/06 13:14:34;;;;;;;1.70;1.30;;;14.50;46.80;;;;;;4987031;28;45563;-66
2022/03/06 13:17:08;;;;;;;2.00;1.58;;;14.50;46.80;;;;;;4987130;28;45046;-63
2022/03/06 13:19:48;;;;;;;2.33;1.38;;;14.50;46.90;;;;;;4990786;28;46532;-66
2022/03/06 13:22:16;;;;;;;2.47;1.80;;;14.50;46.70;;;;;;4987502;28;45305;-67
2022/03/06 13:25:08;;;;;;;2.17;1.45;;;14.50;46.60;;;;;;4966879;28;45286;-66
2022/03/06 13:27:41;;;;;;;2.10;1.60;;;14.50;46.80;;;;;;4989376;28;45024;-64
2022/03/06 13:30:11;;;;;;;1.97;1.40;;;14.50;47.00;;;;;;4984761;28;45265;-65
2022/03/06 13:32:43;;;;;;;1.85;1.40;;;14.40;47.10;;;;;;4979064;28;45404;-66
2022/03/06 13:35:12;;;;;;;2.20;1.67;;;14.40;47.20;;;;;;4979547;28;44867;-64
2022/03/06 13:37:38;;;;;;;1.92;1.65;;;14.40;47.20;;;;;;4980579;28;45860;-64
2022/03/06 13:40:14;;;;;;;1.42;1.25;;;14.40;47.20;;;;;;4986624;28;46013;-62
2022/03/06 13:42:40;;;;;;;2.22;1.70;;;14.50;47.30;;;;;;4988161;28;44942;-65
2022/03/06 13:45:09;;;;;;;2.45;1.98;;;14.50;47.30;;;;;;4990013;28;45738;-63
2022/03/06 13:47:43;;;;;;;2.13;1.50;;;14.50;47.40;;;;;;4993413;28;45467;-63
2022/03/06 13:50:09;;;;;;;2.03;1.77;;;14.50;47.30;;;;;;4986398;28;47000;-62
2022/03/06 13:52:36;;;;;;;1.83;1.45;;;14.50;47.20;;;;;;4996034;28;44852;-64
2022/03/06 13:55:13;;;;;;;2.33;1.65;;;14.50;47.30;;;;;;4991307;28;45069;-63
2022/03/06 13:57:39;;;;;;;2.25;1.83;;;14.50;47.30;;;;;;4992199;28;45515;-63
2022/03/06 14:00:24;;;;;;;2.08;1.50;;;14.50;47.30;;;;;;4983827;28;46648;-65
2022/03/06 14:03:10;;;;;;;2.55;1.73;;;14.60;47.40;;;;;;4989909;28;44693;-59
2022/03/06 14:05:48;;;;;;;2.00;1.70;;;14.60;47.40;;;;;;4988750;28;44982;-64
2022/03/06 14:08:18;;;;;;;1.77;1.63;;;14.60;47.40;;;;;;4989544;28;45203;-66
2022/03/06 14:11:22;;;;;;;2.60;1.70;;;14.50;47.40;;;;;;4990699;28;45405;-63
2022/03/06 14:13:52;;;;;;;1.75;1.30;;;14.50;47.50;;;;;;4991271;28;45464;-64
2022/03/06 14:16:17;;;;;;;3.33;1.80;;;14.50;47.50;;;;;;4989967;28;45352;-66
2022/03/06 14:18:47;;;;;;;2.40;1.20;;;14.60;47.50;;;;;;4993005;28;45670;-63
2022/03/06 14:21:43;;;;;;;1.50;1.20;;;14.60;47.50;;;;;;4971570;28;46581;-66
2022/03/06 14:24:10;;;;;;;2.17;1.52;;;14.60;47.50;;;;;;4974385;28;45413;-65
2022/03/06 14:26:37;;;;;;;2.22;1.95;;;14.60;47.60;;;;;;4987433;28;45660;-67
2022/03/06 14:29:17;;;;;;;2.00;1.65;;;14.60;47.50;;;;;;4957428;28;45554;-66
2022/03/06 14:31:44;;;;;;;2.20;1.40;;;14.60;47.50;;;;;;4985019;28;45519;-65
2022/03/06 14:34:10;;;;;;;1.98;1.38;;;14.60;47.50;;;;;;4985906;28;45138;-64
2022/03/06 14:36:35;;;;;;;1.70;1.50;;;14.70;47.50;;;;;;4971646;28;45534;-65
2022/03/06 14:39:01;;;;;;;2.00;1.75;;;14.70;47.50;;;;;;4994833;28;46530;-67
2022/03/06 14:41:27;;;;;;;1.63;1.42;;;14.60;47.50;;;;;;4986027;28;47819;-64
2022/03/06 14:43:52;;;;;;;1.77;1.38;;;14.70;47.40;;;;;;4965305;28;45256;-62
2022/03/06 14:46:19;;;;;;;2.72;1.80;;;14.70;47.40;;;;;;4989443;28;45212;-63
2022/03/06 14:48:49;;;;;;;2.03;1.63;;;14.70;47.40;;;;;;4976154;28;45198;-64
2022/03/06 14:51:15;;;;;;;2.03;1.35;;;14.80;47.30;;;;;;4989990;28;46209;-62
2022/03/06 14:53:41;;;;;;;1.95;1.60;;;14.70;47.30;;;;;;4971815;28;45469;-63
2022/03/06 14:56:07;;;;;;;4.28;1.92;;;14.80;47.30;;;;;;4989289;28;44944;-64
2022/03/06 14:58:33;;;;;;;2.10;1.80;;;14.90;47.20;;;;;;4983084;28;46074;-61
2022/03/06 15:00:59;;;;;;;1.88;1.67;;;14.90;47.10;;;;;;4966483;28;46641;-63
2022/03/06 15:03:24;;;;;;;2.33;1.73;;;14.90;46.90;;;;;;4983776;28;44900;-64
2022/03/06 15:05:50;;;;;;;1.85;1.58;;;14.90;47.00;;;;;;4988142;28;45256;-63
2022/03/06 15:08:16;;;;;;;1.95;1.63;;;14.90;47.10;;;;;;4992309;28;45651;-63
2022/03/06 15:10:41;;;;;;;1.80;1.52;;;14.80;47.10;;;;;;4993136;28;45198;-63
2022/03/06 15:13:07;;;;;;;2.28;1.48;;;14.90;47.10;;;;;;4989121;28;45272;-62
2022/03/06 15:15:33;;;;;;;2.03;1.65;;;14.90;47.10;;;;;;4979372;28;45298;-62
2022/03/06 15:17:59;;;;;;;2.05;1.45;;;14.80;47.10;;;;;;4971861;28;44965;-64
2022/03/06 15:20:26;;;;;;;2.35;1.73;;;14.80;47.20;;;;;;4989408;28;45888;-63
2022/03/06 15:22:52;;;;;;;1.83;1.50;;;14.80;47.20;;;;;;4983243;28;44956;-62
2022/03/06 15:25:17;;;;;;;2.08;1.48;;;14.70;47.20;;;;;;4989351;28;45491;-64
2022/03/06 15:27:43;;;;;;;2.78;1.70;;;14.80;47.30;;;;;;4978326;28;45771;-62
2022/03/06 15:30:09;;;;;;;1.42;1.33;;;14.70;47.30;;;;;;4985313;28;45709;-64
2022/03/06 15:32:35;;;;;;;2.17;1.63;;;14.70;47.30;;;;;;4986836;28;44763;-64
2022/03/06 15:35:00;;;;;;;1.75;1.33;;;14.70;47.40;;;;;;4983440;28;44995;-63
2022/03/06 15:37:26;;;;;;;2.47;1.60;;;14.70;47.40;;;;;;4986337;28;45620;-64
2022/03/06 15:39:51;;;;;;;2.40;1.70;;;14.60;47.40;;;;;;4984118;28;45517;-65
2022/03/06 15:42:17;;;;;;;2.05;1.67;;;14.60;47.40;;;;;;4987209;28;45201;-64
2022/03/06 15:44:43;;;;;;;2.63;1.67;;;14.60;47.50;;;;;;4970403;28;45562;-64
2022/03/06 15:47:08;;;;;;;1.80;1.45;;;14.60;47.50;;;;;;4967815;28;44751;-66
2022/03/06 15:49:34;;;;;;;2.15;1.83;;;14.60;47.70;;;;;;4987138;28;46090;-65
2022/03/06 15:52:00;;;;;;;2.40;1.55;;;14.60;47.60;;;;;;4987267;28;45372;-65
2022/03/06 15:54:25;;;;;;;2.38;1.73;;;14.50;47.60;;;;;;4985906;28;45412;-64
2022/03/06 15:56:51;;;;;;;2.95;1.85;;;14.50;47.70;;;;;;4980613;28;45357;-63
2022/03/06 15:59:18;;;;;;;1.83;1.50;;;14.50;47.70;;;;;;4980921;28;47173;-64
2022/03/06 16:01:44;;;;;;;1.80;1.38;;;14.50;47.70;;;;;;4965938;28;45625;-64
2022/03/06 16:04:09;;;;;;;3.40;1.40;;;14.50;47.70;;;;;;4970704;28;45447;-64
2022/03/06 16:06:35;;;;;;;3.47;1.70;;;14.50;47.70;;;;;;4985035;28;45414;-65
2022/03/06 16:09:01;;;;;;;1.83;1.42;;;14.50;47.70;;;;;;4985527;28;45317;-65
2022/03/06 16:11:26;;;;;;;2.65;1.67;;;14.40;47.60;;;;;;4987814;28;45284;-64
2022/03/06 16:13:52;;;;;;;2.40;1.80;;;14.50;47.70;;;;;;4985542;28;45762;-64
2022/03/06 16:16:18;;;;;;;2.92;1.67;;;14.50;47.70;;;;;;4985599;28;45306;-65
2022/03/06 16:18:44;;;;;;;1.75;1.52;;;14.50;47.70;;;;;;4984606;28;45607;-63
2022/03/06 16:21:10;;;;;;;4.25;1.60;;;14.50;47.70;;;;;;4969376;28;45474;-64
2022/03/06 16:23:35;;;;;;;3.55;1.70;;;14.50;47.60;;;;;;4983372;28;45718;-64
2022/03/06 16:26:02;;;;;;;1.98;1.70;;;14.40;47.60;;;;;;4985202;28;44887;-63
2022/03/06 16:28:28;;;;;;;1.95;1.55;;;14.40;47.70;;;;;;4982707;28;45855;-67
2022/03/06 16:30:54;;;;;;;2.08;1.63;;;14.40;47.70;;;;;;4985072;28;44724;-64
2022/03/06 16:33:20;;;;;;;2.58;1.90;;;14.40;47.60;;;;;;4983990;28;45169;-64
2022/03/06 16:35:45;;;;;;;2.78;1.77;;;14.40;47.70;;;;;;4988016;28;45544;-64
2022/03/06 16:38:11;;;;;;;1.48;1.35;;;14.40;47.70;;;;;;4988072;28;45847;-64
2022/03/06 16:40:36;;;;;;;2.33;1.67;;;14.40;48.30;;;;;;4983581;28;45178;-63
2022/03/06 16:43:02;;;;;;;2.00;1.42;;;14.40;47.60;;;;;;4986565;28;45743;-63
2022/03/06 16:45:28;;;;;;;2.35;1.60;;;14.40;47.60;;;;;;4988899;28;45518;-63
2022/03/06 16:47:53;;;;;;;1.95;1.65;;;14.40;47.60;;;;;;4985690;28;46903;-64